createdAt,value
2022-10-13T00:01:16.955Z,6.47
2022-10-13T00:03:47.448Z,5.97
2022-10-13T00:06:22.653Z,6.78
2022-10-13T00:08:50.598Z,5.63
2022-10-13T00:11:23.885Z,6.93
2022-10-13T00:13:52.731Z,6.88
2022-10-13T00:16:21.921Z,6.40
2022-10-13T00:18:49.649Z,6.18
2022-10-13T00:21:19.125Z,6.93
2022-10-13T00:23:51.925Z,6.40
2022-10-13T00:26:26.541Z,6.38
2022-10-13T00:28:57.365Z,6.70
2022-10-13T00:31:30.290Z,6.47
2022-10-13T00:34:01.915Z,6.18
2022-10-13T00:36:29.661Z,7.30
2022-10-13T00:38:57.487Z,6.72
2022-10-13T00:41:24.725Z,7.32
2022-10-13T00:44:07.515Z,7.30
2022-10-13T00:46:37.268Z,7.63
2022-10-13T00:49:14.480Z,7.20
2022-10-13T00:51:49.183Z,7.78
2022-10-13T00:54:20.600Z,6.38
2022-10-13T00:56:48.075Z,6.47
2022-10-13T00:59:23.293Z,6.47
2022-10-13T01:01:54.439Z,6.85
2022-10-13T01:04:25.807Z,7.72
2022-10-13T01:06:53.819Z,6.72
2022-10-13T01:09:20.744Z,6.93
2022-10-13T01:12:07.892Z,7.05
2022-10-13T01:14:44.841Z,7.22
2022-10-13T01:17:29.060Z,7.35
2022-10-13T01:20:17.815Z,6.85
2022-10-13T01:23:12.627Z,6.95
2022-10-13T01:25:58.586Z,7.93
2022-10-13T01:29:01.466Z,7.30
2022-10-13T01:31:37.675Z,6.95
2022-10-13T01:34:29.686Z,7.13
2022-10-13T01:37:02.174Z,7.13
2022-10-13T01:39:29.280Z,7.45
2022-10-13T01:42:14.791Z,7.30
2022-10-13T01:44:48.750Z,6.70
2022-10-13T01:47:18.057Z,7.43
2022-10-13T01:49:53.413Z,7.80
2022-10-13T01:52:23.689Z,6.68
2022-10-13T01:54:53.411Z,7.57
2022-10-13T01:57:33.850Z,7.97
2022-10-13T02:00:08.386Z,7.65
2022-10-13T02:03:40.014Z,8.00
2022-10-13T02:06:23.211Z,7.47
2022-10-13T02:09:03.039Z,7.93
2022-10-13T02:11:29.976Z,7.90
2022-10-13T02:14:03.570Z,7.72
2022-10-13T02:16:35.225Z,6.80
2022-10-13T02:19:05.634Z,7.93
2022-10-13T02:21:33.369Z,7.90
2022-10-13T02:24:04.058Z,7.10
2022-10-13T02:26:32.556Z,7.53
2022-10-13T02:29:11.638Z,7.68
2022-10-13T02:31:39.326Z,6.80
2022-10-13T02:34:06.736Z,7.82
2022-10-13T02:36:34.758Z,7.47
2022-10-13T02:39:02.122Z,7.43
2022-10-13T02:41:29.054Z,7.13
2022-10-13T02:43:56.072Z,6.75
2022-10-13T02:46:26.274Z,6.97
2022-10-13T02:48:53.231Z,7.50
2022-10-13T02:51:20.273Z,7.70
2022-10-13T02:53:47.216Z,7.07
2022-10-13T02:56:14.063Z,7.20
2022-10-13T02:58:40.986Z,7.40
2022-10-13T03:01:10.605Z,7.35
2022-10-13T03:03:38.043Z,8.13
2022-10-13T03:06:05.941Z,7.80
2022-10-13T03:08:34.708Z,8.30
2022-10-13T03:11:02.218Z,7.40
2022-10-13T03:13:29.841Z,8.63
2022-10-13T03:16:03.717Z,8.18
2022-10-13T03:18:30.714Z,9.00
2022-10-13T03:21:08.773Z,8.13
2022-10-13T03:23:39.869Z,8.20
2022-10-13T03:26:07.277Z,8.48
2022-10-13T03:28:34.651Z,8.18
2022-10-13T03:31:06.985Z,8.27
2022-10-13T03:36:03.478Z,8.82
2022-10-13T03:38:32.366Z,8.75
2022-10-13T03:41:08.953Z,8.45
2022-10-13T03:43:38.876Z,9.50
2022-10-13T03:46:07.315Z,8.18
2022-10-13T03:48:35.509Z,8.35
2022-10-13T03:51:17.991Z,8.52
2022-10-13T03:53:51.403Z,8.82
2022-10-13T03:56:24.390Z,8.82
2022-10-13T03:58:57.072Z,8.30
2022-10-13T04:01:27.694Z,9.07
2022-10-13T04:03:56.249Z,8.65
2022-10-13T04:06:24.641Z,8.90
2022-10-13T04:08:51.938Z,9.30
2022-10-13T04:11:22.126Z,8.23
2022-10-13T04:13:56.111Z,9.75
2022-10-13T04:16:28.432Z,8.88
2022-10-13T04:19:03.458Z,8.70
2022-10-13T04:21:33.567Z,10.20
2022-10-13T04:24:01.462Z,8.95
2022-10-13T04:26:31.733Z,10.30
2022-10-13T04:29:02.986Z,10.43
2022-10-13T04:31:31.105Z,10.60
2022-10-13T04:33:58.571Z,9.88
2022-10-13T04:36:28.730Z,10.40
2022-10-13T04:38:57.325Z,9.88
2022-10-13T04:41:24.535Z,10.65
2022-10-13T04:43:56.181Z,9.43
2022-10-13T04:46:26.599Z,11.25
2022-10-13T04:48:57.589Z,10.13
2022-10-13T04:51:32.931Z,8.88
2022-10-13T04:54:02.602Z,8.30
2022-10-13T04:56:29.677Z,9.57
2022-10-13T04:59:02.030Z,8.85
2022-10-13T05:01:29.119Z,9.88
2022-10-13T05:03:59.771Z,9.52
2022-10-13T05:06:32.224Z,8.40
2022-10-13T05:08:59.979Z,9.57
2022-10-13T05:11:28.512Z,11.50
2022-10-13T05:13:57.369Z,10.40
2022-10-13T05:16:25.272Z,11.38
2022-10-13T05:18:54.124Z,9.38
2022-10-13T05:21:24.370Z,9.00
2022-10-13T05:23:55.910Z,8.68
2022-10-13T05:26:28.969Z,8.50
2022-10-13T05:28:57.022Z,9.05
2022-10-13T05:31:27.657Z,8.90
2022-10-13T05:33:56.467Z,8.65
2022-10-13T05:36:27.466Z,8.40
2022-10-13T05:38:56.522Z,9.05
2022-10-13T05:41:25.791Z,8.80
2022-10-13T05:44:06.605Z,9.10
2022-10-13T05:46:34.322Z,9.73
2022-10-13T05:49:04.325Z,9.60
2022-10-13T05:51:36.891Z,9.52
2022-10-13T05:54:31.142Z,9.32
2022-10-13T05:57:05.759Z,8.60
2022-10-13T05:59:39.157Z,9.57
2022-10-13T06:02:08.547Z,10.05
2022-10-13T06:04:59.931Z,9.40
2022-10-13T06:07:27.126Z,9.52
2022-10-13T06:09:58.416Z,10.45
2022-10-13T06:12:25.669Z,8.80
2022-10-13T06:14:52.864Z,53.10
2022-10-13T06:17:19.988Z,18.38
2022-10-13T06:19:47.681Z,13.02
2022-10-13T06:22:15.013Z,13.95
2022-10-13T06:24:42.196Z,11.95
2022-10-13T06:27:11.041Z,18.05
2022-10-13T06:29:38.843Z,10.45
2022-10-13T06:32:06.225Z,10.02
2022-10-13T06:34:33.727Z,15.48
2022-10-13T06:37:01.117Z,10.65
2022-10-13T06:39:28.136Z,9.05
2022-10-13T06:42:02.222Z,11.07
2022-10-13T06:44:37.701Z,8.82
2022-10-13T06:47:11.592Z,9.57
2022-10-13T06:49:38.665Z,8.93
2022-10-13T06:52:06.032Z,8.88
2022-10-13T06:54:33.242Z,8.57
2022-10-13T06:57:00.472Z,9.13
2022-10-13T06:59:30.538Z,8.50
2022-10-13T07:01:57.474Z,8.65
2022-10-13T07:04:27.246Z,8.20
2022-10-13T07:06:57.353Z,7.88
2022-10-13T07:09:24.348Z,8.00
2022-10-13T07:11:51.947Z,7.93
2022-10-13T07:14:18.980Z,6.57
2022-10-13T07:16:48.488Z,7.50
2022-10-13T07:19:15.326Z,7.72
2022-10-13T07:21:43.033Z,7.10
2022-10-13T07:24:12.240Z,6.50
2022-10-13T07:26:45.710Z,7.78
2022-10-13T07:29:16.274Z,6.78
2022-10-13T07:31:45.178Z,7.35
2022-10-13T07:34:16.078Z,6.85
2022-10-13T07:36:45.661Z,7.63
2022-10-13T07:39:15.233Z,6.13
2022-10-13T07:41:42.330Z,7.53
2022-10-13T07:44:09.401Z,7.00
2022-10-13T07:46:36.387Z,6.63
2022-10-13T07:49:03.630Z,7.72
2022-10-13T07:51:30.920Z,7.25
2022-10-13T07:53:58.044Z,6.90
2022-10-13T07:56:25.083Z,7.00
2022-10-13T07:58:52.094Z,7.40
2022-10-13T08:01:19.312Z,6.68
2022-10-13T08:03:50.218Z,6.72
2022-10-13T08:06:18.934Z,7.22
2022-10-13T08:08:48.728Z,6.93
2022-10-13T08:13:49.795Z,6.72
2022-10-13T08:16:21.717Z,6.50
2022-10-13T08:18:49.510Z,6.80
2022-10-13T08:21:56.860Z,6.40
2022-10-13T08:24:12.592Z,6.18
2022-10-13T08:26:40.591Z,6.70
2022-10-13T08:29:26.988Z,6.68
2022-10-13T08:31:54.587Z,5.80
2022-10-13T08:34:23.402Z,6.20
2022-10-13T08:36:53.537Z,6.63
2022-10-13T08:39:22.330Z,6.90
2022-10-13T08:41:52.907Z,6.90
2022-10-13T08:47:43.122Z,7.05
2022-10-13T08:50:21.873Z,6.22
2022-10-13T08:52:50.408Z,8.80
2022-10-13T08:55:35.485Z,7.30
2022-10-13T08:58:06.907Z,7.00
2022-10-13T09:00:33.983Z,7.20
2022-10-13T09:03:21.647Z,7.28
2022-10-13T09:06:21.813Z,6.63
2022-10-13T09:09:01.034Z,7.60
2022-10-13T09:11:34.550Z,7.25
2022-10-13T09:14:05.451Z,7.45
2022-10-13T09:16:39.122Z,8.65
2022-10-13T09:19:40.954Z,8.43
2022-10-13T09:22:18.447Z,9.18
2022-10-13T09:24:52.766Z,8.38
2022-10-13T09:27:22.614Z,8.63
2022-10-13T09:29:50.495Z,8.20
2022-10-13T09:32:24.491Z,8.07
2022-10-13T09:34:52.927Z,7.93
2022-10-13T09:37:22.818Z,8.27
2022-10-13T09:40:22.341Z,8.18
2022-10-13T09:42:53.875Z,8.60
2022-10-13T09:45:24.255Z,8.68
2022-10-13T09:48:08.652Z,8.23
2022-10-13T09:50:36.234Z,8.48
2022-10-13T09:53:35.725Z,9.32
2022-10-13T09:56:17.009Z,8.65
2022-10-13T09:58:51.584Z,9.38
2022-10-13T10:01:24.912Z,8.20
2022-10-13T10:03:54.860Z,7.85
2022-10-13T10:06:27.653Z,8.20
2022-10-13T10:09:06.761Z,8.57
2022-10-13T10:11:42.273Z,8.00
2022-10-13T10:14:29.227Z,8.98
2022-10-13T10:17:23.113Z,8.10
2022-10-13T10:20:17.702Z,8.45
2022-10-13T10:22:58.810Z,8.05
2022-10-13T10:25:30.032Z,8.52
2022-10-13T10:28:03.549Z,8.63
2022-10-13T10:30:32.415Z,8.05
2022-10-13T10:33:01.827Z,9.02
2022-10-13T10:35:40.379Z,9.32
2022-10-13T10:38:28.619Z,8.80
2022-10-13T10:41:03.346Z,7.85
2022-10-13T10:43:46.054Z,8.27
2022-10-13T10:46:23.600Z,7.60
2022-10-13T10:48:55.337Z,8.38
2022-10-13T10:51:27.870Z,8.52
2022-10-13T10:54:01.000Z,8.05
2022-10-13T10:56:56.247Z,8.13
2022-10-13T10:59:36.381Z,8.10
2022-10-13T11:02:09.030Z,8.70
2022-10-13T11:04:47.606Z,8.70
2022-10-13T11:07:26.518Z,7.85
2022-10-13T11:09:54.136Z,9.02
2022-10-13T11:12:21.925Z,7.35
2022-10-13T11:14:49.501Z,7.50
2022-10-13T11:17:20.100Z,8.07
2022-10-13T11:19:49.071Z,8.60
2022-10-13T11:22:21.355Z,8.52
2022-10-13T11:24:55.961Z,8.90
2022-10-13T11:27:40.173Z,7.65
2022-10-13T11:30:44.396Z,8.00
2022-10-13T11:33:38.019Z,7.78
2022-10-13T11:36:42.358Z,7.80
2022-10-13T11:39:28.236Z,7.32
2022-10-13T11:42:16.412Z,6.30
2022-10-13T11:44:57.520Z,6.03
2022-10-13T11:47:34.003Z,5.97
2022-10-13T11:50:27.368Z,5.43
2022-10-13T11:53:12.475Z,5.90
2022-10-13T11:55:59.145Z,5.90
2022-10-13T11:58:31.579Z,5.82
2022-10-13T12:01:06.524Z,5.55
2022-10-13T12:03:37.073Z,5.25
2022-10-13T12:06:33.711Z,5.38
2022-10-13T12:09:21.577Z,5.07
2022-10-13T12:11:57.868Z,5.10
2022-10-13T12:17:32.473Z,5.10
2022-10-13T12:20:18.463Z,5.00
2022-10-13T12:22:49.468Z,5.38
2022-10-13T12:25:27.050Z,5.18
2022-10-13T12:28:11.181Z,4.70
2022-10-13T12:30:38.955Z,4.88
2022-10-13T12:33:28.777Z,4.82
2022-10-13T12:35:56.351Z,5.20
2022-10-13T12:38:23.922Z,5.28
2022-10-13T12:40:55.119Z,5.03
2022-10-13T12:43:26.735Z,5.72
2022-10-13T12:45:57.754Z,5.70
2022-10-13T12:48:38.819Z,7.22
2022-10-13T12:51:30.237Z,7.43
2022-10-13T12:53:59.987Z,5.90
2022-10-13T12:56:33.128Z,6.85
2022-10-13T12:59:03.739Z,7.47
2022-10-13T13:01:33.460Z,6.68
2022-10-13T13:04:29.903Z,6.25
2022-10-13T13:07:02.253Z,6.40
2022-10-13T13:09:38.854Z,7.38
2022-10-13T13:12:09.209Z,8.35
2022-10-13T13:14:54.209Z,8.45
2022-10-13T13:20:32.693Z,9.23
2022-10-13T13:23:00.788Z,10.43
2022-10-13T13:25:28.291Z,9.60
2022-10-13T13:27:55.448Z,10.25
2022-10-13T13:30:24.383Z,10.85
2022-10-13T13:32:53.844Z,10.65
2022-10-13T13:37:53.101Z,9.50
2022-10-13T13:40:26.950Z,10.45
2022-10-13T13:42:55.010Z,9.27
2022-10-13T13:45:30.128Z,9.80
2022-10-13T13:48:00.681Z,10.55
2022-10-13T13:50:37.846Z,9.82
2022-10-13T13:53:05.957Z,9.57
2022-10-13T13:55:33.453Z,9.77
2022-10-13T13:58:03.283Z,9.73
2022-10-13T14:00:30.359Z,9.00
2022-10-13T14:03:00.806Z,8.57
2022-10-13T14:05:28.171Z,7.95
2022-10-13T14:07:59.738Z,7.68
2022-10-13T14:10:29.078Z,7.28
2022-10-13T14:12:56.274Z,6.93
2022-10-13T14:15:27.232Z,5.93
2022-10-13T14:17:56.719Z,6.25
2022-10-13T14:20:26.678Z,7.20
2022-10-13T14:22:53.989Z,5.82
2022-10-13T14:25:21.390Z,5.78
2022-10-13T14:27:48.385Z,5.32
2022-10-13T14:30:18.202Z,4.70
2022-10-13T14:32:45.308Z,4.60
2022-10-13T14:35:12.250Z,4.03
2022-10-13T14:37:39.631Z,5.03
2022-10-13T14:40:07.749Z,4.15
2022-10-13T14:42:34.879Z,3.75
2022-10-13T14:45:06.543Z,3.95
2022-10-13T14:47:35.636Z,3.53
2022-10-13T14:50:04.410Z,3.70
2022-10-13T14:52:31.795Z,3.63
2022-10-13T14:54:58.827Z,4.05
2022-10-13T14:57:26.424Z,3.28
2022-10-13T14:59:56.769Z,3.33
2022-10-13T15:02:29.276Z,4.03
2022-10-13T15:04:58.862Z,3.83
2022-10-13T15:07:26.075Z,3.90
2022-10-13T15:10:04.318Z,4.03
2022-10-13T15:12:33.854Z,3.67
2022-10-13T15:15:01.031Z,4.40
2022-10-13T15:17:28.564Z,3.25
2022-10-13T15:19:58.924Z,3.22
2022-10-13T15:22:26.132Z,2.45
2022-10-13T15:24:56.164Z,2.55
2022-10-13T15:27:23.759Z,2.53
2022-10-13T15:29:53.353Z,2.17
2022-10-13T15:32:21.161Z,3.17
2022-10-13T15:34:55.067Z,3.90
2022-10-13T15:37:22.541Z,3.15
2022-10-13T15:39:57.040Z,3.13
2022-10-13T15:42:24.403Z,3.53
2022-10-13T15:45:08.822Z,2.60
2022-10-13T15:47:41.651Z,1.95
2022-10-13T15:50:09.508Z,1.67
2022-10-13T15:52:40.804Z,1.88
2022-10-13T15:55:10.621Z,2.20
2022-10-13T15:57:38.399Z,1.80
2022-10-13T16:00:07.781Z,2.00
2022-10-13T16:02:41.387Z,2.20
2022-10-13T16:05:10.546Z,2.30
2022-10-13T16:07:39.077Z,2.47
2022-10-13T16:10:06.963Z,2.53
2022-10-13T16:12:34.335Z,1.73
2022-10-13T16:15:02.747Z,2.58
2022-10-13T16:17:32.775Z,1.90
2022-10-13T16:20:06.161Z,2.47
2022-10-13T16:22:35.272Z,2.00
2022-10-13T16:25:08.732Z,2.22
2022-10-13T16:27:40.425Z,1.90
2022-10-13T16:30:10.455Z,2.20
2022-10-13T16:32:40.941Z,2.13
2022-10-13T16:35:11.960Z,1.83
2022-10-13T16:37:41.217Z,2.20
2022-10-13T16:40:09.261Z,1.83
2022-10-13T16:42:36.132Z,2.33
2022-10-13T16:45:03.503Z,2.33
2022-10-13T16:47:30.446Z,1.95
2022-10-13T16:49:57.424Z,2.58
2022-10-13T16:52:24.451Z,1.88
2022-10-13T16:54:52.586Z,2.70
2022-10-13T16:57:20.006Z,2.70
2022-10-13T16:59:49.424Z,2.30
2022-10-13T17:02:16.505Z,2.63
2022-10-13T17:04:43.590Z,2.72
2022-10-13T17:07:11.253Z,3.88
2022-10-13T17:09:38.508Z,3.70
2022-10-13T17:12:05.749Z,3.90
2022-10-13T17:14:32.873Z,2.92
2022-10-13T17:17:02.770Z,5.05
2022-10-13T17:19:29.713Z,5.45
2022-10-13T17:21:56.557Z,5.30
2022-10-13T17:24:23.884Z,4.40
2022-10-13T17:26:51.151Z,3.90
2022-10-13T17:29:18.526Z,3.83
2022-10-13T17:31:45.685Z,4.20
2022-10-13T17:34:12.714Z,4.28
2022-10-13T17:36:39.781Z,4.35
2022-10-13T17:39:12.357Z,3.88
2022-10-13T17:41:42.890Z,5.18
2022-10-13T17:44:11.266Z,4.78
2022-10-13T17:46:39.857Z,4.60
2022-10-13T17:49:09.838Z,4.97
2022-10-13T17:51:37.025Z,4.65
2022-10-13T17:54:04.368Z,4.28
2022-10-13T17:56:31.880Z,4.50
2022-10-13T17:59:00.671Z,4.25
2022-10-13T18:01:32.754Z,4.80
2022-10-13T18:04:05.350Z,4.88
2022-10-13T18:06:43.904Z,4.10
2022-10-13T18:09:24.112Z,4.35
2022-10-13T18:11:53.792Z,4.43
2022-10-13T18:14:24.865Z,4.57
2022-10-13T18:16:52.706Z,4.00
2022-10-13T18:19:21.398Z,3.60
2022-10-13T18:21:50.451Z,4.72
2022-10-13T18:24:17.790Z,3.78
2022-10-13T18:27:12.469Z,3.63
2022-10-13T18:34:00.633Z,5.72
2022-10-13T18:37:07.547Z,4.80
2022-10-13T18:40:24.972Z,4.43
2022-10-13T18:43:02.176Z,4.70
2022-10-13T18:45:34.917Z,4.60
2022-10-13T18:48:02.076Z,4.35
2022-10-13T18:50:28.953Z,4.97
2022-10-13T18:52:56.359Z,5.45
2022-10-13T18:55:26.832Z,4.70
2022-10-13T18:57:54.044Z,4.90
2022-10-13T19:00:21.235Z,5.00
2022-10-13T19:02:48.240Z,5.18
2022-10-13T19:05:18.063Z,5.10
2022-10-13T19:07:45.330Z,4.97
2022-10-13T19:10:12.453Z,4.57
2022-10-13T19:12:42.346Z,5.18
2022-10-13T19:15:09.608Z,5.20
2022-10-13T19:17:36.666Z,4.80
2022-10-13T19:20:04.107Z,5.78
2022-10-13T19:22:34.021Z,6.75
2022-10-13T19:25:02.257Z,6.65
2022-10-13T19:27:40.455Z,7.68
2022-10-13T19:30:08.092Z,6.90
2022-10-13T19:32:35.331Z,5.93
2022-10-13T19:35:02.636Z,5.47
2022-10-13T19:37:32.754Z,5.28
2022-10-13T19:40:02.738Z,5.35
2022-10-13T19:42:30.159Z,5.72
2022-10-13T19:44:58.529Z,5.75
2022-10-13T19:47:25.892Z,5.43
2022-10-13T19:49:52.955Z,5.32
2022-10-13T19:52:20.085Z,6.05
2022-10-13T19:54:47.381Z,7.75
2022-10-13T19:57:14.423Z,7.97
2022-10-13T19:59:46.696Z,7.85
2022-10-13T20:02:15.595Z,6.13
2022-10-13T20:04:42.775Z,6.47
2022-10-13T20:07:09.860Z,6.43
2022-10-13T20:09:39.962Z,6.15
2022-10-13T20:12:10.427Z,6.30
2022-10-13T20:14:43.089Z,6.43
2022-10-13T20:17:10.057Z,6.25
2022-10-13T20:19:37.843Z,6.35
2022-10-13T20:22:04.829Z,6.85
2022-10-13T20:24:34.605Z,6.88
2022-10-13T20:27:01.795Z,7.28
2022-10-13T20:29:29.710Z,6.18
2022-10-13T20:31:57.040Z,6.55
2022-10-13T20:34:26.914Z,6.03
2022-10-13T20:36:54.292Z,6.70
2022-10-13T20:39:21.556Z,6.82
2022-10-13T20:41:48.426Z,6.72
2022-10-13T20:44:15.406Z,7.15
2022-10-13T20:46:42.445Z,7.00
2022-10-13T20:49:13.498Z,7.20
2022-10-13T20:51:42.733Z,6.73
2022-10-13T20:54:11.606Z,6.55
2022-10-13T20:56:39.262Z,6.45
2022-10-13T20:59:08.670Z,7.28
2022-10-13T21:01:36.968Z,7.00
2022-10-13T21:04:08.166Z,7.05
2022-10-13T21:06:36.020Z,6.55
2022-10-13T21:09:07.545Z,6.38
2022-10-13T21:11:35.144Z,7.05
2022-10-13T21:14:09.271Z,5.88
2022-10-13T21:16:37.860Z,6.10
2022-10-13T21:19:08.929Z,6.85
2022-10-13T21:21:36.983Z,6.68
2022-10-13T21:24:09.134Z,6.10
2022-10-13T21:26:37.280Z,5.63
2022-10-13T21:29:04.452Z,5.88
2022-10-13T21:31:31.695Z,5.85
2022-10-13T21:33:59.449Z,5.65
2022-10-13T21:36:30.764Z,5.88
2022-10-13T21:39:04.287Z,6.03
2022-10-13T21:45:04.243Z,5.72
2022-10-13T21:51:55.077Z,5.93
2022-10-13T21:54:23.138Z,5.88
2022-10-13T21:56:52.884Z,5.80
2022-10-13T21:59:20.331Z,5.38
2022-10-13T22:01:50.970Z,5.15
2022-10-13T22:04:18.214Z,5.63
2022-10-13T22:06:45.259Z,5.63
2022-10-13T22:09:18.211Z,5.90
2022-10-13T22:11:45.258Z,5.75
2022-10-13T22:14:13.307Z,4.88
2022-10-13T22:16:43.345Z,5.15
2022-10-13T22:19:11.045Z,5.32
2022-10-13T22:21:41.687Z,5.00
2022-10-13T22:24:12.327Z,5.20
2022-10-13T22:26:41.362Z,4.95
2022-10-13T22:29:09.853Z,4.60
2022-10-13T22:31:38.978Z,4.55
2022-10-13T22:34:09.679Z,5.13
2022-10-13T22:36:45.033Z,5.45
2022-10-13T22:39:12.799Z,6.18
2022-10-13T22:41:39.828Z,6.10
2022-10-13T22:44:06.738Z,4.80
2022-10-13T22:46:36.579Z,4.72
2022-10-13T22:49:04.915Z,4.18
2022-10-13T22:51:33.756Z,3.97
2022-10-13T22:54:01.240Z,4.15
2022-10-13T22:56:30.874Z,4.15
2022-10-13T22:59:08.897Z,4.07
2022-10-13T23:01:36.619Z,3.58
2022-10-13T23:04:04.537Z,3.22
2022-10-13T23:06:32.994Z,3.58
2022-10-13T23:09:04.757Z,3.80
2022-10-13T23:11:32.087Z,3.55
2022-10-13T23:14:01.496Z,3.03
2022-10-13T23:16:29.244Z,3.05
2022-10-13T23:18:56.374Z,2.85
2022-10-13T23:21:26.321Z,3.15
2022-10-13T23:24:02.203Z,3.13
2022-10-13T23:26:30.078Z,2.53
2022-10-13T23:28:58.031Z,2.70
2022-10-13T23:31:26.628Z,2.40
2022-10-13T23:33:53.857Z,2.55
2022-10-13T23:36:24.878Z,2.00
2022-10-13T23:39:06.554Z,2.40
2022-10-13T23:41:33.972Z,2.00
2022-10-13T23:44:01.276Z,1.70
2022-10-13T23:46:28.346Z,2.22
2022-10-13T23:48:55.626Z,1.70
2022-10-13T23:51:27.869Z,1.50
2022-10-13T23:54:18.711Z,1.60
2022-10-13T23:56:45.890Z,2.03
2022-10-13T23:59:12.975Z,1.48
